createdAt,value
2018-10-01T00:02:09.347Z,7.37
2018-10-01T00:04:38.541Z,5.77
2018-10-01T00:07:07.790Z,5.27
2018-10-01T00:09:36.983Z,6.73
2018-10-01T00:12:06.206Z,5.93
2018-10-01T00:14:35.418Z,7.77
2018-10-01T00:17:04.628Z,4.87
2018-10-01T00:19:38.963Z,7.53
2018-10-01T00:22:46.184Z,5.90
2018-10-01T00:25:15.729Z,6.10
2018-10-01T00:27:45.007Z,5.00
2018-10-01T00:30:14.254Z,6.07
2018-10-01T00:32:43.567Z,4.70
2018-10-01T00:35:12.807Z,4.50
2018-10-01T00:37:42.056Z,5.17
2018-10-01T00:40:11.285Z,6.23
2018-10-01T00:42:40.522Z,6.20
2018-10-01T00:45:09.853Z,7.33
2018-10-01T00:47:39.116Z,5.23
2018-10-01T00:50:08.317Z,5.10
2018-10-01T00:52:37.565Z,4.53
2018-10-01T00:55:06.787Z,4.77
2018-10-01T00:57:36.013Z,6.40
2018-10-01T01:00:05.251Z,6.37
2018-10-01T01:02:34.476Z,6.20
2018-10-01T01:05:03.669Z,4.87
2018-10-01T01:07:32.915Z,5.97
2018-10-01T01:10:02.144Z,6.07
2018-10-01T01:12:31.371Z,5.57
2018-10-01T01:15:00.614Z,6.33
2018-10-01T01:17:29.886Z,4.53
2018-10-01T01:19:59.289Z,3.97
2018-10-01T01:22:28.493Z,5.17
2018-10-01T01:24:57.885Z,4.93
2018-10-01T01:27:27.095Z,4.93
2018-10-01T01:29:56.321Z,4.70
2018-10-01T01:32:25.562Z,4.30
2018-10-01T01:34:54.796Z,5.47
2018-10-01T01:37:24.020Z,5.70
2018-10-01T01:39:53.246Z,5.47
2018-10-01T01:42:22.481Z,3.70
2018-10-01T01:44:51.746Z,5.00
2018-10-01T01:47:21.035Z,4.30
2018-10-01T01:49:50.285Z,4.73
2018-10-01T01:52:19.519Z,5.10
2018-10-01T01:54:48.757Z,4.90
2018-10-01T01:57:17.981Z,4.17
2018-10-01T01:59:47.207Z,4.80
2018-10-01T02:02:16.433Z,4.77
2018-10-01T02:04:45.666Z,3.50
2018-10-01T02:07:14.916Z,3.90
2018-10-01T02:09:44.133Z,4.87
2018-10-01T02:12:13.342Z,5.40
2018-10-01T02:14:42.547Z,6.27
2018-10-01T02:17:11.750Z,5.47
2018-10-01T02:19:41.007Z,4.60
2018-10-01T02:22:10.234Z,3.90
2018-10-01T02:24:39.510Z,3.93
2018-10-01T02:27:08.732Z,4.37
2018-10-01T02:29:37.951Z,4.07
2018-10-01T02:32:07.159Z,4.00
2018-10-01T02:34:36.406Z,3.83
2018-10-01T02:37:05.612Z,4.73
2018-10-01T02:39:34.853Z,3.97
2018-10-01T02:42:04.141Z,4.23
2018-10-01T02:44:33.442Z,3.00
2018-10-01T02:47:09.262Z,4.40
2018-10-01T02:49:38.510Z,4.47
2018-10-01T02:52:13.019Z,3.20
2018-10-01T02:54:42.269Z,6.40
2018-10-01T02:57:11.497Z,3.30
2018-10-01T02:59:40.736Z,5.17
2018-10-01T03:02:09.973Z,3.70
2018-10-01T03:04:39.207Z,3.87
2018-10-01T03:07:08.451Z,3.80
2018-10-01T03:09:37.686Z,4.17
2018-10-01T03:12:06.972Z,3.60
2018-10-01T03:14:36.260Z,5.77
2018-10-01T03:17:05.501Z,4.90
2018-10-01T03:19:34.736Z,4.23
2018-10-01T03:22:03.981Z,6.13
2018-10-01T03:24:33.232Z,5.00
2018-10-01T03:27:02.512Z,5.10
2018-10-01T03:29:31.721Z,3.97
2018-10-01T03:32:01.003Z,4.13
2018-10-01T03:34:30.261Z,5.90
2018-10-01T03:36:59.510Z,4.37
2018-10-01T03:39:28.744Z,3.67
2018-10-01T03:41:58.001Z,4.70
2018-10-01T03:44:27.223Z,4.63
2018-10-01T03:46:56.522Z,4.17
2018-10-01T03:49:25.757Z,4.57
2018-10-01T03:51:55.015Z,4.40
2018-10-01T03:54:24.266Z,3.60
2018-10-01T03:56:53.533Z,5.57
2018-10-01T03:59:22.759Z,4.87
2018-10-01T04:01:52.018Z,4.70
2018-10-01T04:04:21.247Z,5.00
2018-10-01T04:06:50.490Z,4.97
2018-10-01T04:09:19.730Z,4.33
2018-10-01T04:11:48.955Z,4.60
2018-10-01T04:14:18.171Z,4.17
2018-10-01T04:16:47.378Z,5.13
2018-10-01T04:19:16.607Z,5.90
2018-10-01T04:21:45.837Z,5.33
2018-10-01T04:24:15.051Z,5.33
2018-10-01T04:26:44.336Z,5.07
2018-10-01T04:29:14.525Z,5.60
2018-10-01T04:31:44.764Z,5.53
2018-10-01T04:34:14.144Z,3.90
2018-10-01T04:36:43.370Z,3.30
2018-10-01T04:39:14.704Z,3.97
2018-10-01T04:41:43.973Z,7.90
2018-10-01T04:44:13.469Z,4.43
2018-10-01T04:46:42.795Z,6.73
2018-10-01T04:49:12.298Z,6.73
2018-10-01T04:51:42.966Z,5.63
2018-10-01T04:54:12.561Z,5.20
2018-10-01T04:56:48.521Z,6.63
2018-10-01T04:59:17.770Z,6.83
2018-10-01T05:01:47.063Z,6.97
2018-10-01T05:04:16.327Z,4.83
2018-10-01T05:06:51.929Z,4.40
2018-10-01T05:09:21.186Z,5.70
2018-10-01T05:11:50.415Z,5.33
2018-10-01T05:14:19.645Z,5.30
2018-10-01T05:16:48.866Z,6.10
2018-10-01T05:19:18.108Z,5.67
2018-10-01T05:21:47.322Z,6.20
2018-10-01T05:24:16.611Z,5.70
2018-10-01T05:26:45.833Z,6.13
2018-10-01T05:29:15.094Z,7.47
2018-10-01T05:31:44.344Z,5.53
2018-10-01T05:34:13.670Z,5.33
2018-10-01T05:36:42.906Z,7.10
2018-10-01T05:39:12.960Z,5.53
2018-10-01T05:41:42.202Z,5.50
2018-10-01T05:44:11.505Z,7.23
2018-10-01T05:46:40.749Z,8.70
2018-10-01T05:49:10.075Z,6.10
2018-10-01T05:51:39.352Z,5.53
2018-10-01T05:54:08.737Z,5.90
2018-10-01T05:56:38.032Z,5.00
2018-10-01T05:59:07.460Z,7.57
2018-10-01T06:01:36.730Z,7.23
2018-10-01T06:04:05.999Z,5.70
2018-10-01T06:06:35.235Z,6.97
2018-10-01T06:09:07.590Z,6.97
2018-10-01T06:11:36.826Z,5.00
2018-10-01T06:14:06.077Z,4.53
2018-10-01T06:16:35.347Z,4.43
2018-10-01T06:19:04.602Z,5.17
2018-10-01T06:21:33.954Z,4.93
2018-10-01T06:24:03.202Z,4.93
2018-10-01T06:26:32.427Z,6.53
2018-10-01T06:29:01.675Z,6.40
2018-10-01T06:31:30.916Z,8.53
2018-10-01T06:34:00.407Z,7.53
2018-10-01T06:36:29.679Z,5.63
2018-10-01T06:38:58.930Z,6.87
2018-10-01T06:41:28.178Z,7.83
2018-10-01T06:43:57.974Z,6.27
2018-10-01T06:46:27.217Z,4.77
2018-10-01T06:48:56.534Z,5.30
2018-10-01T06:51:25.776Z,5.80
2018-10-01T06:53:55.077Z,8.33
2018-10-01T06:56:24.375Z,6.30
2018-10-01T06:58:53.736Z,5.67
2018-10-01T07:01:23.295Z,5.33
2018-10-01T07:03:52.548Z,6.73
2018-10-01T07:06:21.860Z,4.27
2018-10-01T07:08:51.126Z,6.13
2018-10-01T07:11:20.411Z,6.97
2018-10-01T07:13:49.668Z,5.33
2018-10-01T07:16:19.140Z,10.77
2018-10-01T07:18:48.344Z,7.33
2018-10-01T07:21:17.590Z,9.37
2018-10-01T07:23:46.840Z,7.67
2018-10-01T07:26:16.113Z,9.70
2018-10-01T07:28:45.363Z,8.03
2018-10-01T07:31:14.627Z,7.37
2018-10-01T07:33:43.877Z,7.80
2018-10-01T07:36:13.132Z,9.20
2018-10-01T07:38:42.405Z,11.00
2018-10-01T07:41:11.714Z,11.63
2018-10-01T07:43:40.956Z,13.93
2018-10-01T07:46:10.335Z,13.60
2018-10-01T07:48:39.655Z,13.03
2018-10-01T07:51:09.472Z,13.67
2018-10-01T07:53:38.723Z,15.33
2018-10-01T07:56:08.019Z,11.60
2018-10-01T07:58:37.288Z,16.23
2018-10-01T08:01:06.556Z,14.23
2018-10-01T08:03:35.788Z,16.77
2018-10-01T08:06:05.058Z,15.70
2018-10-01T08:08:34.342Z,16.27
2018-10-01T08:11:03.574Z,18.47
2018-10-01T08:13:32.859Z,16.43
2018-10-01T08:16:02.156Z,14.43
2018-10-01T08:18:31.398Z,15.70
2018-10-01T08:21:00.664Z,20.97
2018-10-01T08:23:29.995Z,15.57
2018-10-01T08:25:59.358Z,19.57
2018-10-01T08:28:28.565Z,13.50
2018-10-01T08:30:57.829Z,18.27
2018-10-01T08:33:27.094Z,15.47
2018-10-01T08:35:56.361Z,16.10
2018-10-01T08:38:26.197Z,15.50
2018-10-01T08:41:04.624Z,18.77
2018-10-01T08:43:34.616Z,13.80
2018-10-01T08:46:04.788Z,17.03
2018-10-01T08:48:36.218Z,15.57
2018-10-01T08:51:17.574Z,16.93
2018-10-01T08:53:54.473Z,13.63
2018-10-01T08:56:23.852Z,13.60
2018-10-01T08:58:53.054Z,13.03
2018-10-01T09:01:22.310Z,13.00
2018-10-01T09:03:51.577Z,13.03
2018-10-01T09:06:20.827Z,18.47
2018-10-01T09:08:50.041Z,14.53
2018-10-01T09:11:19.291Z,14.20
2018-10-01T09:13:48.819Z,14.80
2018-10-01T09:16:18.028Z,15.63
2018-10-01T09:18:47.267Z,14.03
2018-10-01T09:21:16.582Z,13.77
2018-10-01T09:23:45.837Z,18.07
2018-10-01T09:26:15.153Z,16.43
2018-10-01T09:28:44.397Z,16.70
2018-10-01T09:31:13.705Z,14.43
2018-10-01T09:33:43.000Z,18.13
2018-10-01T09:36:12.253Z,18.20
2018-10-01T09:38:41.495Z,16.90
2018-10-01T09:41:10.736Z,15.73
2018-10-01T09:43:39.958Z,10.20
2018-10-01T09:46:09.267Z,9.73
2018-10-01T09:48:38.539Z,10.80
2018-10-01T09:51:07.886Z,8.83
2018-10-01T09:53:37.135Z,9.77
2018-10-01T09:56:06.585Z,10.20
2018-10-01T09:58:35.803Z,8.87
2018-10-01T10:01:11.095Z,11.27
2018-10-01T10:03:40.357Z,8.47
2018-10-01T10:06:10.012Z,11.10
2018-10-01T10:08:39.736Z,10.20
2018-10-01T10:11:09.071Z,8.27
2018-10-01T10:13:38.485Z,7.33
2018-10-01T10:16:07.996Z,9.30
2018-10-01T10:18:37.422Z,11.43
2018-10-01T10:21:06.783Z,8.43
2018-10-01T10:23:36.186Z,8.53
2018-10-01T10:26:05.900Z,6.53
2018-10-01T10:28:35.238Z,8.73
2018-10-01T10:31:04.506Z,5.77
2018-10-01T10:33:33.752Z,5.70
2018-10-01T10:36:03.026Z,9.27
2018-10-01T10:38:32.335Z,5.63
2018-10-01T10:41:01.544Z,7.40
2018-10-01T10:43:30.817Z,6.17
2018-10-01T10:46:00.056Z,5.37
2018-10-01T10:48:29.348Z,6.67
2018-10-01T10:50:58.595Z,5.03
2018-10-01T10:53:27.845Z,6.93
2018-10-01T10:55:57.134Z,7.83
2018-10-01T10:58:26.355Z,5.70
2018-10-01T11:00:55.901Z,7.87
2018-10-01T11:03:25.202Z,6.53
2018-10-01T11:05:54.443Z,4.73
2018-10-01T11:08:23.704Z,6.80
2018-10-01T11:10:52.901Z,6.03
2018-10-01T11:13:22.141Z,4.03
2018-10-01T11:15:51.370Z,4.87
2018-10-01T11:18:20.694Z,4.30
2018-10-01T11:20:49.879Z,6.30
2018-10-01T11:23:25.673Z,5.47
2018-10-01T11:25:55.711Z,6.83
2018-10-01T11:28:25.927Z,4.80
2018-10-01T11:30:55.866Z,6.23
2018-10-01T11:33:25.130Z,3.80
2018-10-01T11:35:54.367Z,6.47
2018-10-01T11:38:24.391Z,5.80
2018-10-01T11:40:53.861Z,5.50
2018-10-01T11:43:23.108Z,4.17
2018-10-01T11:45:53.173Z,4.33
2018-10-01T11:48:22.427Z,6.93
2018-10-01T11:50:51.639Z,5.07
2018-10-01T11:53:20.905Z,8.80
2018-10-01T11:55:50.123Z,4.67
2018-10-01T11:58:19.388Z,5.13
2018-10-01T12:00:48.605Z,6.20
2018-10-01T12:03:18.478Z,4.60
2018-10-01T12:05:47.580Z,5.77
2018-10-01T12:08:16.936Z,3.40
2018-10-01T12:10:46.160Z,4.30
2018-10-01T12:13:15.541Z,6.10
2018-10-01T12:15:44.896Z,3.93
2018-10-01T12:18:14.388Z,3.60
2018-10-01T12:20:43.618Z,8.10
2018-10-01T12:23:13.036Z,4.33
2018-10-01T12:25:42.256Z,5.43
2018-10-01T12:28:11.489Z,6.53
2018-10-01T12:30:40.767Z,4.40
2018-10-01T12:33:10.061Z,6.43
2018-10-01T12:35:39.370Z,5.57
2018-10-01T12:38:08.647Z,4.83
2018-10-01T12:40:37.987Z,4.60
2018-10-01T12:43:07.306Z,4.33
2018-10-01T12:45:36.663Z,3.77
2018-10-01T12:48:05.890Z,5.67
2018-10-01T12:50:35.199Z,3.77
2018-10-01T12:53:04.397Z,3.27
2018-10-01T12:55:33.665Z,3.90
2018-10-01T12:58:02.921Z,6.00
2018-10-01T13:00:32.214Z,3.20
2018-10-01T13:03:01.468Z,5.43
2018-10-01T13:05:30.753Z,4.53
2018-10-01T13:08:02.982Z,2.27
2018-10-01T13:10:32.264Z,3.33
2018-10-01T13:13:01.518Z,5.17
2018-10-01T13:15:30.813Z,7.20
2018-10-01T13:18:00.094Z,5.63
2018-10-01T13:20:29.394Z,3.73
2018-10-01T13:22:58.639Z,7.03
2018-10-01T13:25:27.915Z,1.90
2018-10-01T13:27:57.164Z,5.87
2018-10-01T13:30:26.442Z,7.17
2018-10-01T13:32:55.685Z,5.33
2018-10-01T13:35:25.001Z,5.30
2018-10-01T13:37:54.247Z,3.70
2018-10-01T13:40:23.523Z,4.53
2018-10-01T13:42:52.788Z,3.67
2018-10-01T13:45:22.093Z,3.83
2018-10-01T13:47:51.365Z,3.03
2018-10-01T13:50:20.656Z,3.27
2018-10-01T13:52:49.993Z,2.27
2018-10-01T13:55:19.291Z,2.13
2018-10-01T13:57:48.619Z,2.27
2018-10-01T14:00:17.884Z,2.80
2018-10-01T14:02:47.155Z,1.57
2018-10-01T14:05:16.473Z,1.47
2018-10-01T14:07:45.849Z,2.80
2018-10-01T14:10:15.086Z,5.07
2018-10-01T14:12:44.394Z,2.13
2018-10-01T14:15:13.928Z,4.77
2018-10-01T14:17:43.164Z,6.17
2018-10-01T14:20:12.480Z,6.20
2018-10-01T14:22:41.649Z,2.10
2018-10-01T14:25:11.117Z,4.00
2018-10-01T14:27:40.438Z,4.23
2018-10-01T14:30:09.736Z,2.80
2018-10-01T14:32:39.011Z,3.17
2018-10-01T14:35:08.548Z,4.23
2018-10-01T14:37:37.849Z,2.27
2018-10-01T14:40:07.282Z,3.03
2018-10-01T14:42:36.859Z,5.27
2018-10-01T14:45:07.446Z,4.27
2018-10-01T14:47:36.730Z,1.80
2018-10-01T14:50:06.015Z,1.80
2018-10-01T14:52:35.498Z,2.83
2018-10-01T14:55:04.765Z,0.97
2018-10-01T14:57:34.044Z,1.73
2018-10-01T15:00:03.487Z,1.67
2018-10-01T15:02:32.684Z,1.83
2018-10-01T15:05:01.898Z,0.80
2018-10-01T15:07:31.215Z,1.10
2018-10-01T15:10:00.448Z,3.23
2018-10-01T15:12:29.712Z,1.50
2018-10-01T15:14:58.941Z,2.67
2018-10-01T15:17:28.178Z,6.37
2018-10-01T15:19:57.455Z,1.73
2018-10-01T15:22:28.031Z,3.67
2018-10-01T15:24:57.247Z,3.97
2018-10-01T15:27:26.479Z,3.23
2018-10-01T15:29:55.738Z,5.90
2018-10-01T15:32:24.966Z,1.43
2018-10-01T15:34:54.324Z,3.07
2018-10-01T15:37:23.563Z,0.77
2018-10-01T15:39:53.092Z,3.60
2018-10-01T15:42:22.328Z,3.90
2018-10-01T15:44:51.591Z,2.73
2018-10-01T15:47:20.838Z,2.70
2018-10-01T15:49:50.124Z,1.50
2018-10-01T15:52:19.320Z,4.93
2018-10-01T15:54:48.577Z,2.58
2018-10-01T15:57:17.850Z,7.67
2018-10-01T15:59:47.111Z,2.73
2018-10-01T16:02:16.384Z,2.20
2018-10-01T16:04:45.642Z,1.23
2018-10-01T16:07:14.900Z,2.20
2018-10-01T16:09:44.166Z,1.13
2018-10-01T16:12:13.437Z,1.00
2018-10-01T16:14:42.733Z,0.93
2018-10-01T16:17:11.997Z,1.93
2018-10-01T16:19:41.261Z,2.30
2018-10-01T16:22:10.569Z,1.30
2018-10-01T16:24:40.065Z,1.50
2018-10-01T16:27:09.335Z,1.30
2018-10-01T16:29:38.594Z,2.03
2018-10-01T16:32:08.423Z,1.20
2018-10-01T16:34:37.653Z,1.17
2018-10-01T16:37:06.918Z,1.27
2018-10-01T16:39:36.184Z,2.23
2018-10-01T16:42:05.467Z,2.20
2018-10-01T16:44:34.717Z,1.97
2018-10-01T16:47:04.016Z,0.80
2018-10-01T16:49:33.254Z,2.37
2018-10-01T16:52:02.655Z,0.83
2018-10-01T16:54:31.816Z,1.83
2018-10-01T16:57:01.141Z,2.50
2018-10-01T16:59:30.400Z,2.53
2018-10-01T17:01:59.664Z,1.13
2018-10-01T17:04:28.910Z,2.13
2018-10-01T17:06:58.175Z,1.60
2018-10-01T17:09:27.435Z,2.23
2018-10-01T17:11:56.780Z,0.80
2018-10-01T17:14:26.001Z,1.53
2018-10-01T17:16:55.258Z,2.07
2018-10-01T17:19:24.608Z,2.40
2018-10-01T17:21:53.860Z,1.70
2018-10-01T17:24:23.112Z,3.80
2018-10-01T17:26:52.408Z,2.20
2018-10-01T17:29:21.699Z,1.60
2018-10-01T17:31:50.965Z,3.03
2018-10-01T17:34:20.205Z,3.27
2018-10-01T17:36:49.469Z,3.90
2018-10-01T17:39:18.716Z,2.03
2018-10-01T17:41:47.968Z,2.90
2018-10-01T17:44:17.814Z,1.53
2018-10-01T17:46:47.081Z,2.60
2018-10-01T17:49:16.357Z,4.50
2018-10-01T17:51:45.622Z,1.87
2018-10-01T17:54:15.266Z,3.70
2018-10-01T17:56:44.734Z,4.07
2018-10-01T17:59:13.991Z,1.83
2018-10-01T18:01:43.246Z,2.23
2018-10-01T18:04:12.486Z,3.63
2018-10-01T18:06:41.773Z,2.83
2018-10-01T18:09:11.806Z,3.60
2018-10-01T18:11:41.102Z,5.87
2018-10-01T18:14:10.705Z,2.10
2018-10-01T18:16:39.982Z,4.63
2018-10-01T18:19:09.233Z,3.30
2018-10-01T18:21:38.542Z,3.53
2018-10-01T18:24:07.822Z,4.67
2018-10-01T18:26:37.067Z,3.20
2018-10-01T18:29:06.329Z,6.20
2018-10-01T18:31:35.567Z,4.43
2018-10-01T18:34:04.814Z,3.47
2018-10-01T18:36:34.130Z,4.33
2018-10-01T18:39:04.333Z,3.77
2018-10-01T18:41:33.593Z,5.30
2018-10-01T18:44:02.894Z,6.20
2018-10-01T18:46:32.124Z,2.80
2018-10-01T18:49:01.378Z,5.57
2018-10-01T18:51:30.580Z,3.73
2018-10-01T18:53:59.879Z,4.40
2018-10-01T18:56:29.151Z,2.97
2018-10-01T18:58:58.422Z,5.83
2018-10-01T19:01:27.676Z,5.40
2018-10-01T19:03:56.919Z,5.57
2018-10-01T19:06:26.142Z,5.00
2018-10-01T19:08:55.396Z,8.50
2018-10-01T19:11:24.643Z,6.07
2018-10-01T19:13:53.891Z,6.03
2018-10-01T19:16:23.240Z,4.13
2018-10-01T19:18:52.563Z,5.93
2018-10-01T19:21:21.855Z,5.17
2018-10-01T19:23:51.104Z,6.57
2018-10-01T19:26:20.364Z,3.23
2018-10-01T19:28:49.739Z,3.53
2018-10-01T19:31:19.012Z,8.63
2018-10-01T19:33:48.264Z,5.40
2018-10-01T19:36:17.523Z,3.17
2018-10-01T19:38:46.898Z,3.00
2018-10-01T19:41:16.144Z,6.23
2018-10-01T19:43:45.428Z,2.87
2018-10-01T19:46:14.692Z,2.43
2018-10-01T19:48:43.985Z,3.77
2018-10-01T19:51:13.436Z,4.67
2018-10-01T19:53:43.130Z,5.27
2018-10-01T19:56:12.504Z,2.93
2018-10-01T19:58:41.843Z,4.73
2018-10-01T20:01:11.091Z,4.87
2018-10-01T20:03:40.343Z,5.87
2018-10-01T20:06:09.612Z,2.53
2018-10-01T20:08:38.874Z,2.90
2018-10-01T20:11:08.192Z,5.30
2018-10-01T20:13:37.448Z,4.73
2018-10-01T20:16:06.814Z,3.20
2018-10-01T20:18:36.073Z,2.90
2018-10-01T20:21:05.356Z,4.87
2018-10-01T20:23:34.691Z,2.80
2018-10-01T20:26:04.017Z,2.97
2018-10-01T20:28:33.386Z,2.77
2018-10-01T20:31:02.539Z,1.43
2018-10-01T20:33:31.778Z,2.27
2018-10-01T20:36:01.067Z,3.50
2018-10-01T20:38:30.381Z,2.93
2018-10-01T20:40:59.705Z,3.30
2018-10-01T20:43:29.000Z,2.07
2018-10-01T20:45:58.389Z,3.27
2018-10-01T20:48:27.560Z,2.63
2018-10-01T20:50:56.819Z,3.10
2018-10-01T20:53:26.135Z,4.93
2018-10-01T20:55:55.410Z,3.03
2018-10-01T20:58:24.627Z,3.53
2018-10-01T21:00:53.883Z,3.10
2018-10-01T21:03:23.331Z,1.93
2018-10-01T21:05:52.591Z,4.33
2018-10-01T21:08:21.852Z,4.53
2018-10-01T21:10:51.128Z,3.23
2018-10-01T21:13:20.466Z,3.47
2018-10-01T21:15:49.786Z,3.20
2018-10-01T21:18:19.060Z,3.23
2018-10-01T21:20:48.411Z,4.50
2018-10-01T21:23:17.647Z,5.33
2018-10-01T21:25:46.885Z,5.20
2018-10-01T21:28:16.190Z,4.50
2018-10-01T21:30:45.506Z,4.03
2018-10-01T21:33:14.857Z,4.90
2018-10-01T21:35:44.129Z,3.27
2018-10-01T21:38:13.356Z,3.73
2018-10-01T21:40:42.662Z,2.83
2018-10-01T21:43:11.876Z,3.10
2018-10-01T21:45:41.128Z,5.23
2018-10-01T21:48:10.370Z,2.90
2018-10-01T21:50:39.700Z,2.87
2018-10-01T21:53:08.940Z,5.37
2018-10-01T21:55:38.219Z,2.63
2018-10-01T21:58:07.482Z,2.83
2018-10-01T22:00:41.980Z,3.00
2018-10-01T22:03:11.415Z,3.20
2018-10-01T22:05:40.683Z,3.97
2018-10-01T22:08:09.921Z,3.47
2018-10-01T22:10:39.358Z,3.50
2018-10-01T22:13:09.461Z,4.50
2018-10-01T22:15:44.082Z,3.13
2018-10-01T22:18:14.399Z,3.83
2018-10-01T22:20:44.211Z,4.43
2018-10-01T22:23:14.064Z,1.80
2018-10-01T22:25:43.335Z,4.60
2018-10-01T22:28:12.579Z,2.93
2018-10-01T22:30:42.445Z,3.27
2018-10-01T22:33:11.900Z,5.63
2018-10-01T22:35:41.147Z,4.60
2018-10-01T22:38:10.390Z,3.30
2018-10-01T22:40:39.704Z,4.13
2018-10-01T22:43:08.959Z,3.60
2018-10-01T22:45:38.183Z,2.90
2018-10-01T22:48:07.475Z,3.60
2018-10-01T22:50:36.709Z,5.37
2018-10-01T22:53:05.958Z,5.50
2018-10-01T22:55:35.328Z,4.87
2018-10-01T22:58:04.569Z,2.57
2018-10-01T23:00:33.835Z,4.30
2018-10-01T23:03:03.097Z,2.87
2018-10-01T23:05:32.312Z,4.93
2018-10-01T23:08:01.576Z,3.57
2018-10-01T23:10:30.817Z,4.27
2018-10-01T23:13:00.072Z,3.93
2018-10-01T23:15:29.315Z,4.57
2018-10-01T23:17:58.575Z,5.47
2018-10-01T23:20:27.815Z,2.93
2018-10-01T23:22:57.056Z,5.80
2018-10-01T23:25:26.295Z,2.13
2018-10-01T23:27:55.553Z,2.97
2018-10-01T23:30:24.789Z,5.30
2018-10-01T23:32:54.027Z,3.13
2018-10-01T23:35:23.262Z,2.00
2018-10-01T23:37:52.571Z,4.77
2018-10-01T23:40:21.808Z,3.80
2018-10-01T23:42:51.049Z,3.53
2018-10-01T23:45:20.283Z,3.70
2018-10-01T23:47:49.516Z,3.90
2018-10-01T23:50:18.752Z,3.83
2018-10-01T23:52:48.024Z,3.70
2018-10-01T23:55:17.261Z,4.03
2018-10-01T23:57:46.511Z,3.77
